sensor_id;sensor_type;location;lat;lon;timestamp;temperature;humidity
21085;DHT22;34247;50.064;19.970;2022-09-09T00:01:10;34.10;37.50
21085;DHT22;34247;50.064;19.970;2022-09-09T00:02:21;34.10;37.50
21085;DHT22;34247;50.064;19.970;2022-09-09T00:04:00;34.10;37.60
21085;DHT22;34247;50.064;19.970;2022-09-09T00:08:22;34.10;37.70
21085;DHT22;34247;50.064;19.970;2022-09-09T00:09:46;34.10;37.60
21085;DHT22;34247;50.064;19.970;2022-09-09T00:10:59;34.10;37.70
21085;DHT22;34247;50.064;19.970;2022-09-09T00:12:17;34.10;37.60
21085;DHT22;34247;50.064;19.970;2022-09-09T00:13:52;34.10;37.60
21085;DHT22;34247;50.064;19.970;2022-09-09T00:15:07;34.10;37.60
21085;DHT22;34247;50.064;19.970;2022-09-09T00:16:27;34.10;37.60
21085;DHT22;34247;50.064;19.970;2022-09-09T00:19:27;34.10;37.60
21085;DHT22;34247;50.064;19.970;2022-09-09T00:22:20;34.10;37.50
21085;DHT22;34247;50.064;19.970;2022-09-09T00:23:33;34.10;37.40
21085;DHT22;34247;50.064;19.970;2022-09-09T00:24:45;34.10;37.40
21085;DHT22;34247;50.064;19.970;2022-09-09T00:26:14;34.10;37.40
21085;DHT22;34247;50.064;19.970;2022-09-09T00:27:41;34.10;37.40
21085;DHT22;34247;50.064;19.970;2022-09-09T00:30:21;34.10;37.40
21085;DHT22;34247;50.064;19.970;2022-09-09T00:31:28;34.10;37.40
21085;DHT22;34247;50.064;19.970;2022-09-09T00:32:34;34.10;37.50
21085;DHT22;34247;50.064;19.970;2022-09-09T00:33:39;34.10;37.30
21085;DHT22;34247;50.064;19.970;2022-09-09T00:34:58;34.00;37.30
21085;DHT22;34247;50.064;19.970;2022-09-09T00:36:13;34.00;37.30
21085;DHT22;34247;50.064;19.970;2022-09-09T00:37:20;34.00;37.40
21085;DHT22;34247;50.064;19.970;2022-09-09T00:38:33;34.00;37.40
21085;DHT22;34247;50.064;19.970;2022-09-09T00:39:45;34.00;37.40
21085;DHT22;34247;50.064;19.970;2022-09-09T00:42:41;34.00;37.40
21085;DHT22;34247;50.064;19.970;2022-09-09T00:44:13;34.00;37.40
21085;DHT22;34247;50.064;19.970;2022-09-09T00:50:13;34.00;37.40
21085;DHT22;34247;50.064;19.970;2022-09-09T00:55:11;34.00;37.50
21085;DHT22;34247;50.064;19.970;2022-09-09T00:56:34;33.90;37.50
21085;DHT22;34247;50.064;19.970;2022-09-09T00:57:51;33.90;37.50
21085;DHT22;34247;50.064;19.970;2022-09-09T01:00:40;34.00;37.60
21085;DHT22;34247;50.064;19.970;2022-09-09T01:01:47;34.00;37.60
21085;DHT22;34247;50.064;19.970;2022-09-09T01:03:07;33.90;37.40
21085;DHT22;34247;50.064;19.970;2022-09-09T01:04:34;34.00;37.50
21085;DHT22;34247;50.064;19.970;2022-09-09T01:05:57;33.90;37.50
21085;DHT22;34247;50.064;19.970;2022-09-09T01:07:16;33.90;37.50
21085;DHT22;34247;50.064;19.970;2022-09-09T01:09:59;33.90;37.50
21085;DHT22;34247;50.064;19.970;2022-09-09T01:11:13;33.90;37.50
21085;DHT22;34247;50.064;19.970;2022-09-09T01:13:42;33.90;37.60
21085;DHT22;34247;50.064;19.970;2022-09-09T01:16:33;34.00;37.60
21085;DHT22;34247;50.064;19.970;2022-09-09T01:19:10;34.00;37.50
21085;DHT22;34247;50.064;19.970;2022-09-09T01:22:14;33.90;37.50
21085;DHT22;34247;50.064;19.970;2022-09-09T01:25:12;33.90;37.50
21085;DHT22;34247;50.064;19.970;2022-09-09T01:26:29;33.90;37.40
21085;DHT22;34247;50.064;19.970;2022-09-09T01:27:37;34.00;37.30
21085;DHT22;34247;50.064;19.970;2022-09-09T01:28:45;33.90;37.30
21085;DHT22;34247;50.064;19.970;2022-09-09T01:29:51;33.90;37.20
21085;DHT22;34247;50.064;19.970;2022-09-09T01:30:57;33.90;37.30
21085;DHT22;34247;50.064;19.970;2022-09-09T01:32:42;33.90;37.30
21085;DHT22;34247;50.064;19.970;2022-09-09T01:33:51;33.90;37.20
21085;DHT22;34247;50.064;19.970;2022-09-09T01:34:57;33.90;37.90
21085;DHT22;34247;50.064;19.970;2022-09-09T01:36:12;33.90;37.30
21085;DHT22;34247;50.064;19.970;2022-09-09T01:37:23;33.90;37.20
21085;DHT22;34247;50.064;19.970;2022-09-09T01:38:28;33.90;37.20
21085;DHT22;34247;50.064;19.970;2022-09-09T01:39:34;33.90;37.10
21085;DHT22;34247;50.064;19.970;2022-09-09T01:40:39;33.90;37.10
21085;DHT22;34247;50.064;19.970;2022-09-09T01:41:43;33.90;37.10
21085;DHT22;34247;50.064;19.970;2022-09-09T01:42:49;33.90;37.10
21085;DHT22;34247;50.064;19.970;2022-09-09T01:43:54;33.90;37.10
21085;DHT22;34247;50.064;19.970;2022-09-09T01:44:58;33.90;37.00
21085;DHT22;34247;50.064;19.970;2022-09-09T01:46:02;33.90;36.90
21085;DHT22;34247;50.064;19.970;2022-09-09T01:47:06;33.90;36.80
21085;DHT22;34247;50.064;19.970;2022-09-09T01:48:10;33.90;36.80
21085;DHT22;34247;50.064;19.970;2022-09-09T01:49:13;33.90;36.80
21085;DHT22;34247;50.064;19.970;2022-09-09T01:50:18;33.90;36.70
21085;DHT22;34247;50.064;19.970;2022-09-09T01:51:23;33.90;36.70
21085;DHT22;34247;50.064;19.970;2022-09-09T01:52:27;33.80;36.70
21085;DHT22;34247;50.064;19.970;2022-09-09T01:53:31;33.90;36.80
21085;DHT22;34247;50.064;19.970;2022-09-09T01:54:35;33.80;36.80
21085;DHT22;34247;50.064;19.970;2022-09-09T02:03:52;33.80;36.70
21085;DHT22;34247;50.064;19.970;2022-09-09T02:06:40;33.70;36.70
21085;DHT22;34247;50.064;19.970;2022-09-09T02:09:44;33.70;36.60
21085;DHT22;34247;50.064;19.970;2022-09-09T02:11:02;33.70;36.70
21085;DHT22;34247;50.064;19.970;2022-09-09T02:12:25;33.70;36.70
21085;DHT22;34247;50.064;19.970;2022-09-09T02:13:32;33.70;36.70
21085;DHT22;34247;50.064;19.970;2022-09-09T02:14:42;33.70;36.70
21085;DHT22;34247;50.064;19.970;2022-09-09T02:16:26;33.70;36.70
21085;DHT22;34247;50.064;19.970;2022-09-09T02:17:57;33.70;36.70
21085;DHT22;34247;50.064;19.970;2022-09-09T02:19:09;33.70;36.70
21085;DHT22;34247;50.064;19.970;2022-09-09T02:20:19;33.70;36.70
21085;DHT22;34247;50.064;19.970;2022-09-09T02:21:29;33.60;36.60
21085;DHT22;34247;50.064;19.970;2022-09-09T02:22:35;33.60;36.60
21085;DHT22;34247;50.064;19.970;2022-09-09T02:23:43;33.60;36.60
21085;DHT22;34247;50.064;19.970;2022-09-09T02:24:56;33.60;36.50
21085;DHT22;34247;50.064;19.970;2022-09-09T02:26:03;33.60;36.50
21085;DHT22;34247;50.064;19.970;2022-09-09T02:27:18;33.60;36.50
21085;DHT22;34247;50.064;19.970;2022-09-09T02:28:30;33.60;36.50
21085;DHT22;34247;50.064;19.970;2022-09-09T02:29:42;33.60;36.50
21085;DHT22;34247;50.064;19.970;2022-09-09T02:30:56;33.60;36.50
21085;DHT22;34247;50.064;19.970;2022-09-09T02:32:05;33.60;36.40
21085;DHT22;34247;50.064;19.970;2022-09-09T02:33:12;33.60;36.50
21085;DHT22;34247;50.064;19.970;2022-09-09T02:34:23;33.60;36.30
21085;DHT22;34247;50.064;19.970;2022-09-09T02:35:29;33.60;36.40
21085;DHT22;34247;50.064;19.970;2022-09-09T02:36:36;33.60;36.30
21085;DHT22;34247;50.064;19.970;2022-09-09T02:37:45;33.60;36.30
21085;DHT22;34247;50.064;19.970;2022-09-09T02:38:54;33.60;36.30
21085;DHT22;34247;50.064;19.970;2022-09-09T02:39:59;33.60;36.20
21085;DHT22;34247;50.064;19.970;2022-09-09T02:41:03;33.60;36.30
21085;DHT22;34247;50.064;19.970;2022-09-09T02:42:07;33.60;36.30
21085;DHT22;34247;50.064;19.970;2022-09-09T02:43:14;33.60;36.20
21085;DHT22;34247;50.064;19.970;2022-09-09T02:44:19;33.60;36.20
21085;DHT22;34247;50.064;19.970;2022-09-09T02:45:27;33.60;36.20
21085;DHT22;34247;50.064;19.970;2022-09-09T02:49:06;33.50;36.10
21085;DHT22;34247;50.064;19.970;2022-09-09T02:50:26;33.50;36.20
21085;DHT22;34247;50.064;19.970;2022-09-09T02:53:47;33.50;36.10
21085;DHT22;34247;50.064;19.970;2022-09-09T02:55:14;33.50;36.10
21085;DHT22;34247;50.064;19.970;2022-09-09T02:56:51;33.50;36.10
21085;DHT22;34247;50.064;19.970;2022-09-09T02:57:59;33.50;36.10
21085;DHT22;34247;50.064;19.970;2022-09-09T02:59:11;33.50;36.10
21085;DHT22;34247;50.064;19.970;2022-09-09T03:00:15;33.50;36.10
21085;DHT22;34247;50.064;19.970;2022-09-09T03:01:19;33.40;36.20
21085;DHT22;34247;50.064;19.970;2022-09-09T03:02:22;33.40;36.20
21085;DHT22;34247;50.064;19.970;2022-09-09T03:03:27;33.40;36.20
21085;DHT22;34247;50.064;19.970;2022-09-09T03:05:17;33.40;36.20
21085;DHT22;34247;50.064;19.970;2022-09-09T03:06:45;33.40;36.30
21085;DHT22;34247;50.064;19.970;2022-09-09T03:07:59;33.40;36.20
21085;DHT22;34247;50.064;19.970;2022-09-09T03:09:02;33.40;36.30
21085;DHT22;34247;50.064;19.970;2022-09-09T03:10:06;33.40;36.40
21085;DHT22;34247;50.064;19.970;2022-09-09T03:11:20;33.40;36.40
21085;DHT22;34247;50.064;19.970;2022-09-09T03:12:24;33.40;36.40
21085;DHT22;34247;50.064;19.970;2022-09-09T03:13:28;33.40;36.40
21085;DHT22;34247;50.064;19.970;2022-09-09T03:14:55;33.40;36.40
21085;DHT22;34247;50.064;19.970;2022-09-09T03:15:59;33.40;36.40
21085;DHT22;34247;50.064;19.970;2022-09-09T03:17:03;33.40;36.40
21085;DHT22;34247;50.064;19.970;2022-09-09T03:18:08;33.40;36.40
21085;DHT22;34247;50.064;19.970;2022-09-09T03:19:11;33.30;36.40
21085;DHT22;34247;50.064;19.970;2022-09-09T03:20:15;33.30;36.40
21085;DHT22;34247;50.064;19.970;2022-09-09T03:21:28;33.30;36.40
21085;DHT22;34247;50.064;19.970;2022-09-09T03:22:32;33.30;36.40
21085;DHT22;34247;50.064;19.970;2022-09-09T03:23:36;33.30;36.50
21085;DHT22;34247;50.064;19.970;2022-09-09T03:24:44;33.30;36.40
21085;DHT22;34247;50.064;19.970;2022-09-09T03:25:50;33.30;36.40
21085;DHT22;34247;50.064;19.970;2022-09-09T03:26:54;33.30;36.50
21085;DHT22;34247;50.064;19.970;2022-09-09T03:27:59;33.30;36.40
21085;DHT22;34247;50.064;19.970;2022-09-09T03:29:04;33.30;36.50
21085;DHT22;34247;50.064;19.970;2022-09-09T03:30:10;33.30;36.50
21085;DHT22;34247;50.064;19.970;2022-09-09T03:31:13;33.30;36.50
21085;DHT22;34247;50.064;19.970;2022-09-09T03:32:18;33.30;36.50
21085;DHT22;34247;50.064;19.970;2022-09-09T03:33:22;33.30;36.50
21085;DHT22;34247;50.064;19.970;2022-09-09T03:34:29;33.20;36.40
21085;DHT22;34247;50.064;19.970;2022-09-09T03:35:32;33.20;36.50
21085;DHT22;34247;50.064;19.970;2022-09-09T03:36:36;33.20;36.50
21085;DHT22;34247;50.064;19.970;2022-09-09T03:37:40;33.20;36.50
21085;DHT22;34247;50.064;19.970;2022-09-09T03:38:44;33.20;36.50
21085;DHT22;34247;50.064;19.970;2022-09-09T03:39:48;33.20;36.50
21085;DHT22;34247;50.064;19.970;2022-09-09T03:40:53;33.20;36.60
21085;DHT22;34247;50.064;19.970;2022-09-09T03:41:58;33.20;36.60
21085;DHT22;34247;50.064;19.970;2022-09-09T03:43:02;33.20;36.60
21085;DHT22;34247;50.064;19.970;2022-09-09T03:44:06;33.20;36.60
21085;DHT22;34247;50.064;19.970;2022-09-09T03:45:12;33.20;36.60
21085;DHT22;34247;50.064;19.970;2022-09-09T03:46:17;33.20;36.70
21085;DHT22;34247;50.064;19.970;2022-09-09T03:47:23;33.20;36.70
21085;DHT22;34247;50.064;19.970;2022-09-09T03:48:27;33.20;36.70
21085;DHT22;34247;50.064;19.970;2022-09-09T03:49:31;33.20;36.70
21085;DHT22;34247;50.064;19.970;2022-09-09T03:50:37;33.20;36.60
21085;DHT22;34247;50.064;19.970;2022-09-09T03:51:41;33.20;36.60
21085;DHT22;34247;50.064;19.970;2022-09-09T03:52:44;33.20;36.70
21085;DHT22;34247;50.064;19.970;2022-09-09T03:54:17;33.20;36.70
21085;DHT22;34247;50.064;19.970;2022-09-09T03:55:21;33.20;36.60
21085;DHT22;34247;50.064;19.970;2022-09-09T03:56:25;33.20;36.70
21085;DHT22;34247;50.064;19.970;2022-09-09T03:57:29;33.20;36.70
21085;DHT22;34247;50.064;19.970;2022-09-09T03:58:34;33.20;36.70
21085;DHT22;34247;50.064;19.970;2022-09-09T03:59:39;33.20;36.70
21085;DHT22;34247;50.064;19.970;2022-09-09T04:00:43;33.20;36.70
21085;DHT22;34247;50.064;19.970;2022-09-09T04:01:48;33.20;36.70
21085;DHT22;34247;50.064;19.970;2022-09-09T04:02:52;33.20;36.80
21085;DHT22;34247;50.064;19.970;2022-09-09T04:03:57;33.20;36.70
21085;DHT22;34247;50.064;19.970;2022-09-09T04:05:01;33.20;36.70
21085;DHT22;34247;50.064;19.970;2022-09-09T04:06:06;33.20;36.70
21085;DHT22;34247;50.064;19.970;2022-09-09T04:07:12;33.20;36.70
21085;DHT22;34247;50.064;19.970;2022-09-09T04:08:16;33.20;36.70
21085;DHT22;34247;50.064;19.970;2022-09-09T04:09:21;33.20;36.70
21085;DHT22;34247;50.064;19.970;2022-09-09T04:10:25;33.20;36.70
21085;DHT22;34247;50.064;19.970;2022-09-09T04:11:54;33.20;36.70
21085;DHT22;34247;50.064;19.970;2022-09-09T04:12:58;33.20;36.60
21085;DHT22;34247;50.064;19.970;2022-09-09T04:14:03;33.20;36.60
21085;DHT22;34247;50.064;19.970;2022-09-09T04:15:09;33.20;36.60
21085;DHT22;34247;50.064;19.970;2022-09-09T04:16:14;33.20;36.70
21085;DHT22;34247;50.064;19.970;2022-09-09T04:17:18;33.20;36.60
21085;DHT22;34247;50.064;19.970;2022-09-09T04:18:41;33.20;36.60
21085;DHT22;34247;50.064;19.970;2022-09-09T04:19:45;33.20;36.60
21085;DHT22;34247;50.064;19.970;2022-09-09T04:20:50;33.20;36.70
21085;DHT22;34247;50.064;19.970;2022-09-09T04:21:55;33.20;36.70
21085;DHT22;34247;50.064;19.970;2022-09-09T04:23:08;33.20;36.70
21085;DHT22;34247;50.064;19.970;2022-09-09T04:24:13;33.20;36.70
21085;DHT22;34247;50.064;19.970;2022-09-09T04:25:20;33.20;36.70
21085;DHT22;34247;50.064;19.970;2022-09-09T04:26:24;33.20;36.70
21085;DHT22;34247;50.064;19.970;2022-09-09T04:27:30;33.20;36.70
21085;DHT22;34247;50.064;19.970;2022-09-09T04:28:36;33.20;36.70
21085;DHT22;34247;50.064;19.970;2022-09-09T04:29:41;33.20;36.70
21085;DHT22;34247;50.064;19.970;2022-09-09T04:30:45;33.20;36.60
21085;DHT22;34247;50.064;19.970;2022-09-09T04:31:49;33.20;36.60
21085;DHT22;34247;50.064;19.970;2022-09-09T04:32:53;33.20;36.50
21085;DHT22;34247;50.064;19.970;2022-09-09T04:34:17;33.10;36.40
21085;DHT22;34247;50.064;19.970;2022-09-09T04:35:21;33.20;36.50
21085;DHT22;34247;50.064;19.970;2022-09-09T04:36:24;33.20;36.60
21085;DHT22;34247;50.064;19.970;2022-09-09T04:37:28;33.20;36.40
21085;DHT22;34247;50.064;19.970;2022-09-09T04:38:31;33.20;36.40
21085;DHT22;34247;50.064;19.970;2022-09-09T04:39:35;33.20;36.30
21085;DHT22;34247;50.064;19.970;2022-09-09T04:40:41;33.20;36.30
21085;DHT22;34247;50.064;19.970;2022-09-09T04:41:46;33.20;36.30
21085;DHT22;34247;50.064;19.970;2022-09-09T04:42:50;33.20;36.30
21085;DHT22;34247;50.064;19.970;2022-09-09T04:43:54;33.20;36.30
21085;DHT22;34247;50.064;19.970;2022-09-09T04:44:58;33.20;36.40
21085;DHT22;34247;50.064;19.970;2022-09-09T04:46:01;33.20;36.40
21085;DHT22;34247;50.064;19.970;2022-09-09T04:47:06;33.20;36.40
21085;DHT22;34247;50.064;19.970;2022-09-09T04:48:09;33.20;36.40
21085;DHT22;34247;50.064;19.970;2022-09-09T04:49:13;33.20;36.50
21085;DHT22;34247;50.064;19.970;2022-09-09T04:50:17;33.20;36.50
21085;DHT22;34247;50.064;19.970;2022-09-09T04:51:22;33.10;36.40
21085;DHT22;34247;50.064;19.970;2022-09-09T04:52:39;33.20;36.50
21085;DHT22;34247;50.064;19.970;2022-09-09T04:53:44;33.10;36.50
21085;DHT22;34247;50.064;19.970;2022-09-09T04:54:49;33.20;36.50
21085;DHT22;34247;50.064;19.970;2022-09-09T04:56:10;33.10;36.50
21085;DHT22;34247;50.064;19.970;2022-09-09T04:57:15;33.20;36.50
21085;DHT22;34247;50.064;19.970;2022-09-09T04:58:21;33.10;36.50
21085;DHT22;34247;50.064;19.970;2022-09-09T04:59:34;33.20;36.60
21085;DHT22;34247;50.064;19.970;2022-09-09T05:00:38;33.20;36.50
21085;DHT22;34247;50.064;19.970;2022-09-09T05:01:42;33.20;36.60
21085;DHT22;34247;50.064;19.970;2022-09-09T05:02:46;33.20;36.60
21085;DHT22;34247;50.064;19.970;2022-09-09T05:03:51;33.20;36.50
21085;DHT22;34247;50.064;19.970;2022-09-09T05:04:57;33.20;36.50
21085;DHT22;34247;50.064;19.970;2022-09-09T05:06:29;33.10;36.40
21085;DHT22;34247;50.064;19.970;2022-09-09T05:07:46;33.20;36.50
21085;DHT22;34247;50.064;19.970;2022-09-09T05:08:51;33.20;36.50
21085;DHT22;34247;50.064;19.970;2022-09-09T05:09:54;33.20;36.50
21085;DHT22;34247;50.064;19.970;2022-09-09T05:10:58;33.20;36.50
21085;DHT22;34247;50.064;19.970;2022-09-09T05:12:03;33.20;36.40
21085;DHT22;34247;50.064;19.970;2022-09-09T05:13:07;33.20;36.30
21085;DHT22;34247;50.064;19.970;2022-09-09T05:14:11;33.20;36.30
21085;DHT22;34247;50.064;19.970;2022-09-09T05:15:15;33.20;36.30
21085;DHT22;34247;50.064;19.970;2022-09-09T05:16:19;33.20;36.30
21085;DHT22;34247;50.064;19.970;2022-09-09T05:17:24;33.20;36.30
21085;DHT22;34247;50.064;19.970;2022-09-09T05:18:28;33.20;36.30
21085;DHT22;34247;50.064;19.970;2022-09-09T05:19:32;33.20;36.30
21085;DHT22;34247;50.064;19.970;2022-09-09T05:20:51;33.20;36.30
21085;DHT22;34247;50.064;19.970;2022-09-09T05:21:55;33.20;36.20
21085;DHT22;34247;50.064;19.970;2022-09-09T05:22:58;33.20;36.20
21085;DHT22;34247;50.064;19.970;2022-09-09T05:24:02;33.20;36.20
21085;DHT22;34247;50.064;19.970;2022-09-09T05:25:06;33.20;36.20
21085;DHT22;34247;50.064;19.970;2022-09-09T05:26:16;33.20;36.20
21085;DHT22;34247;50.064;19.970;2022-09-09T05:27:22;33.20;36.20
21085;DHT22;34247;50.064;19.970;2022-09-09T05:28:26;33.30;36.10
21085;DHT22;34247;50.064;19.970;2022-09-09T05:29:30;33.20;36.10
21085;DHT22;34247;50.064;19.970;2022-09-09T05:30:36;33.20;36.10
21085;DHT22;34247;50.064;19.970;2022-09-09T05:31:40;33.30;36.10
21085;DHT22;34247;50.064;19.970;2022-09-09T05:32:44;33.30;36.10
21085;DHT22;34247;50.064;19.970;2022-09-09T05:33:48;33.20;36.10
21085;DHT22;34247;50.064;19.970;2022-09-09T05:34:55;33.20;36.10
21085;DHT22;34247;50.064;19.970;2022-09-09T05:36:05;33.20;36.10
21085;DHT22;34247;50.064;19.970;2022-09-09T05:37:11;33.20;36.10
21085;DHT22;34247;50.064;19.970;2022-09-09T05:38:14;33.30;36.20
21085;DHT22;34247;50.064;19.970;2022-09-09T05:39:18;33.30;36.20
21085;DHT22;34247;50.064;19.970;2022-09-09T05:40:22;33.30;36.10
21085;DHT22;34247;50.064;19.970;2022-09-09T05:41:26;33.20;36.10
21085;DHT22;34247;50.064;19.970;2022-09-09T05:42:32;33.20;36.20
21085;DHT22;34247;50.064;19.970;2022-09-09T05:43:35;33.20;36.20
21085;DHT22;34247;50.064;19.970;2022-09-09T05:44:41;33.30;36.20
21085;DHT22;34247;50.064;19.970;2022-09-09T05:46:07;33.20;36.20
21085;DHT22;34247;50.064;19.970;2022-09-09T05:47:12;33.20;36.10
21085;DHT22;34247;50.064;19.970;2022-09-09T05:48:16;33.20;36.10
21085;DHT22;34247;50.064;19.970;2022-09-09T05:49:20;33.20;36.10
21085;DHT22;34247;50.064;19.970;2022-09-09T05:50:25;33.20;36.10
21085;DHT22;34247;50.064;19.970;2022-09-09T05:51:34;33.20;36.10
21085;DHT22;34247;50.064;19.970;2022-09-09T05:52:37;33.30;36.10
21085;DHT22;34247;50.064;19.970;2022-09-09T05:53:42;33.30;36.10
21085;DHT22;34247;50.064;19.970;2022-09-09T05:54:47;33.20;36.20
21085;DHT22;34247;50.064;19.970;2022-09-09T05:55:57;33.20;36.00
21085;DHT22;34247;50.064;19.970;2022-09-09T05:57:13;33.30;36.20
21085;DHT22;34247;50.064;19.970;2022-09-09T05:58:17;33.30;36.10
21085;DHT22;34247;50.064;19.970;2022-09-09T05:59:21;33.40;36.20
21085;DHT22;34247;50.064;19.970;2022-09-09T06:00:27;33.40;36.30
21085;DHT22;34247;50.064;19.970;2022-09-09T06:01:33;33.30;36.20
21085;DHT22;34247;50.064;19.970;2022-09-09T06:02:38;33.30;36.10
21085;DHT22;34247;50.064;19.970;2022-09-09T06:03:44;33.40;36.00
21085;DHT22;34247;50.064;19.970;2022-09-09T06:04:49;33.40;36.10
21085;DHT22;34247;50.064;19.970;2022-09-09T06:06:00;33.40;36.10
21085;DHT22;34247;50.064;19.970;2022-09-09T06:07:05;33.50;36.00
21085;DHT22;34247;50.064;19.970;2022-09-09T06:08:09;33.50;36.10
21085;DHT22;34247;50.064;19.970;2022-09-09T06:09:13;33.50;36.00
21085;DHT22;34247;50.064;19.970;2022-09-09T06:10:18;33.50;36.00
21085;DHT22;34247;50.064;19.970;2022-09-09T06:11:25;33.50;36.00
21085;DHT22;34247;50.064;19.970;2022-09-09T06:12:30;33.60;36.00
21085;DHT22;34247;50.064;19.970;2022-09-09T06:13:33;33.60;35.90
21085;DHT22;34247;50.064;19.970;2022-09-09T06:14:38;33.70;36.00
21085;DHT22;34247;50.064;19.970;2022-09-09T06:15:51;33.70;35.90
21085;DHT22;34247;50.064;19.970;2022-09-09T06:16:55;33.70;35.70
21085;DHT22;34247;50.064;19.970;2022-09-09T06:17:59;33.80;35.40
21085;DHT22;34247;50.064;19.970;2022-09-09T06:19:11;33.80;35.10
21085;DHT22;34247;50.064;19.970;2022-09-09T06:20:15;33.90;35.10
21085;DHT22;34247;50.064;19.970;2022-09-09T06:21:22;33.90;34.60
21085;DHT22;34247;50.064;19.970;2022-09-09T06:22:30;34.00;34.50
21085;DHT22;34247;50.064;19.970;2022-09-09T06:23:34;34.10;34.50
21085;DHT22;34247;50.064;19.970;2022-09-09T06:24:43;34.10;34.30
21085;DHT22;34247;50.064;19.970;2022-09-09T06:25:47;34.20;33.80
21085;DHT22;34247;50.064;19.970;2022-09-09T06:26:52;34.30;33.90
21085;DHT22;34247;50.064;19.970;2022-09-09T06:27:56;34.30;34.00
21085;DHT22;34247;50.064;19.970;2022-09-09T06:29:01;34.30;33.90
21085;DHT22;34247;50.064;19.970;2022-09-09T06:30:07;34.40;34.00
21085;DHT22;34247;50.064;19.970;2022-09-09T06:31:14;34.40;34.20
21085;DHT22;34247;50.064;19.970;2022-09-09T06:32:33;34.50;33.90
21085;DHT22;34247;50.064;19.970;2022-09-09T06:33:41;34.50;33.90
21085;DHT22;34247;50.064;19.970;2022-09-09T06:34:45;34.50;33.40
21085;DHT22;34247;50.064;19.970;2022-09-09T06:35:53;34.60;33.40
21085;DHT22;34247;50.064;19.970;2022-09-09T06:36:58;34.70;33.60
21085;DHT22;34247;50.064;19.970;2022-09-09T06:38:02;34.70;33.10
21085;DHT22;34247;50.064;19.970;2022-09-09T06:39:08;34.80;33.20
21085;DHT22;34247;50.064;19.970;2022-09-09T06:40:17;34.80;32.90
21085;DHT22;34247;50.064;19.970;2022-09-09T06:41:24;35.00;32.50
21085;DHT22;34247;50.064;19.970;2022-09-09T06:42:31;35.10;32.10
21085;DHT22;34247;50.064;19.970;2022-09-09T06:43:35;35.10;32.10
21085;DHT22;34247;50.064;19.970;2022-09-09T06:44:39;35.20;31.90
21085;DHT22;34247;50.064;19.970;2022-09-09T06:45:43;35.20;32.00
21085;DHT22;34247;50.064;19.970;2022-09-09T06:46:48;35.30;31.90
21085;DHT22;34247;50.064;19.970;2022-09-09T06:47:54;35.40;31.70
21085;DHT22;34247;50.064;19.970;2022-09-09T06:49:00;35.40;31.70
21085;DHT22;34247;50.064;19.970;2022-09-09T06:50:04;35.50;31.30
21085;DHT22;34247;50.064;19.970;2022-09-09T06:52:20;35.70;30.60
21085;DHT22;34247;50.064;19.970;2022-09-09T06:53:24;35.80;30.30
21085;DHT22;34247;50.064;19.970;2022-09-09T06:54:30;35.90;30.30
21085;DHT22;34247;50.064;19.970;2022-09-09T06:55:43;35.90;30.30
21085;DHT22;34247;50.064;19.970;2022-09-09T06:56:48;35.90;30.30
21085;DHT22;34247;50.064;19.970;2022-09-09T06:57:53;36.00;30.40
21085;DHT22;34247;50.064;19.970;2022-09-09T06:59:22;36.00;30.10
21085;DHT22;34247;50.064;19.970;2022-09-09T07:00:29;36.10;30.20
21085;DHT22;34247;50.064;19.970;2022-09-09T07:01:36;36.20;29.90
21085;DHT22;34247;50.064;19.970;2022-09-09T07:02:44;36.30;29.80
21085;DHT22;34247;50.064;19.970;2022-09-09T07:03:50;36.40;29.70
21085;DHT22;34247;50.064;19.970;2022-09-09T07:04:56;36.50;29.00
21085;DHT22;34247;50.064;19.970;2022-09-09T07:06:02;36.60;29.00
21085;DHT22;34247;50.064;19.970;2022-09-09T07:09:24;36.70;29.00
21085;DHT22;34247;50.064;19.970;2022-09-09T07:10:30;36.90;28.70
21085;DHT22;34247;50.064;19.970;2022-09-09T07:12:00;37.00;28.70
21085;DHT22;34247;50.064;19.970;2022-09-09T07:13:04;37.20;28.40
21085;DHT22;34247;50.064;19.970;2022-09-09T07:14:27;37.30;28.40
21085;DHT22;34247;50.064;19.970;2022-09-09T07:15:31;37.40;28.40
21085;DHT22;34247;50.064;19.970;2022-09-09T07:16:43;37.50;28.30
21085;DHT22;34247;50.064;19.970;2022-09-09T07:17:47;37.60;28.20
21085;DHT22;34247;50.064;19.970;2022-09-09T07:18:53;37.70;28.10
21085;DHT22;34247;50.064;19.970;2022-09-09T07:20:09;37.80;27.80
21085;DHT22;34247;50.064;19.970;2022-09-09T07:21:19;37.90;27.70
21085;DHT22;34247;50.064;19.970;2022-09-09T07:22:30;38.10;27.20
21085;DHT22;34247;50.064;19.970;2022-09-09T07:23:36;38.20;27.20
21085;DHT22;34247;50.064;19.970;2022-09-09T07:24:41;38.30;27.10
21085;DHT22;34247;50.064;19.970;2022-09-09T07:25:48;38.40;27.00
21085;DHT22;34247;50.064;19.970;2022-09-09T07:27:00;38.40;26.70
21085;DHT22;34247;50.064;19.970;2022-09-09T07:28:06;38.60;26.60
21085;DHT22;34247;50.064;19.970;2022-09-09T07:29:11;38.70;26.40
21085;DHT22;34247;50.064;19.970;2022-09-09T07:30:22;38.80;26.30
21085;DHT22;34247;50.064;19.970;2022-09-09T07:31:32;39.00;25.90
21085;DHT22;34247;50.064;19.970;2022-09-09T07:32:37;39.00;25.90
21085;DHT22;34247;50.064;19.970;2022-09-09T07:33:43;39.10;26.10
21085;DHT22;34247;50.064;19.970;2022-09-09T07:34:48;39.20;26.00
21085;DHT22;34247;50.064;19.970;2022-09-09T07:35:52;39.30;25.90
21085;DHT22;34247;50.064;19.970;2022-09-09T07:36:57;39.30;26.00
21085;DHT22;34247;50.064;19.970;2022-09-09T07:38:01;39.40;25.90
21085;DHT22;34247;50.064;19.970;2022-09-09T07:39:10;39.50;25.70
21085;DHT22;34247;50.064;19.970;2022-09-09T07:40:16;39.50;25.40
21085;DHT22;34247;50.064;19.970;2022-09-09T07:41:25;39.60;25.20
21085;DHT22;34247;50.064;19.970;2022-09-09T07:42:34;39.70;25.10
21085;DHT22;34247;50.064;19.970;2022-09-09T07:43:42;39.70;25.00
21085;DHT22;34247;50.064;19.970;2022-09-09T07:44:47;39.70;25.10
21085;DHT22;34247;50.064;19.970;2022-09-09T07:45:57;39.80;25.30
21085;DHT22;34247;50.064;19.970;2022-09-09T07:47:02;39.90;25.30
21085;DHT22;34247;50.064;19.970;2022-09-09T07:48:06;40.00;25.00
21085;DHT22;34247;50.064;19.970;2022-09-09T07:49:11;40.10;24.80
21085;DHT22;34247;50.064;19.970;2022-09-09T07:50:15;40.10;24.90
21085;DHT22;34247;50.064;19.970;2022-09-09T07:51:21;40.20;24.60
21085;DHT22;34247;50.064;19.970;2022-09-09T07:53:01;40.30;24.60
21085;DHT22;34247;50.064;19.970;2022-09-09T07:54:10;40.40;24.60
21085;DHT22;34247;50.064;19.970;2022-09-09T07:55:22;40.60;24.60
21085;DHT22;34247;50.064;19.970;2022-09-09T07:56:37;40.70;24.50